createdAt,value
2024-04-22T00:00:26.603Z,3.58
2024-04-22T00:02:53.446Z,3.31
2024-04-22T00:05:21.969Z,3.11
2024-04-22T00:07:49.073Z,3.19
2024-04-22T00:10:15.918Z,3.20
2024-04-22T00:12:42.694Z,3.14
2024-04-22T00:15:09.514Z,3.27
2024-04-22T00:17:36.641Z,3.13
2024-04-22T00:20:03.964Z,3.29
2024-04-22T00:22:30.746Z,3.45
2024-04-22T00:24:59.146Z,3.46
2024-04-22T00:27:26.070Z,3.42
2024-04-22T00:29:52.801Z,3.49
2024-04-22T00:32:19.469Z,3.48
2024-04-22T00:34:49.371Z,3.46
2024-04-22T00:37:16.097Z,3.47
2024-04-22T00:39:42.908Z,3.59
2024-04-22T00:42:09.619Z,3.69
2024-04-22T00:44:36.399Z,3.64
2024-04-22T00:47:03.707Z,3.40
2024-04-22T00:49:30.978Z,3.36
2024-04-22T00:51:57.716Z,3.30
2024-04-22T00:54:24.946Z,3.32
2024-04-22T00:56:52.378Z,3.34
2024-04-22T00:59:19.077Z,3.32
2024-04-22T01:01:46.459Z,3.25
2024-04-22T01:04:13.358Z,2.98
2024-04-22T01:06:40.416Z,3.00
2024-04-22T01:09:07.752Z,2.97
2024-04-22T01:11:34.736Z,2.86
2024-04-22T01:14:03.459Z,2.92
2024-04-22T01:16:30.451Z,3.04
2024-04-22T01:18:57.190Z,2.95
2024-04-22T01:21:30.241Z,3.03
2024-04-22T01:23:57.869Z,2.87
2024-04-22T01:26:26.255Z,2.65
2024-04-22T01:28:59.227Z,2.54
2024-04-22T01:31:46.180Z,2.47
2024-04-22T01:34:32.947Z,2.63
2024-04-22T01:37:19.628Z,2.66
2024-04-22T01:40:06.983Z,2.60
2024-04-22T01:42:53.667Z,2.52
2024-04-22T01:45:40.219Z,2.60
2024-04-22T01:48:07.342Z,2.45
2024-04-22T01:50:34.051Z,2.38
2024-04-22T01:53:00.820Z,2.38
2024-04-22T01:55:27.581Z,2.23
2024-04-22T01:57:54.178Z,2.24
2024-04-22T02:00:20.808Z,2.31
2024-04-22T02:02:47.479Z,2.27
2024-04-22T02:05:14.167Z,2.22
2024-04-22T02:07:40.970Z,2.35
2024-04-22T02:10:17.525Z,2.36
2024-04-22T02:12:49.993Z,2.45
2024-04-22T02:15:16.786Z,2.31
2024-04-22T02:17:43.618Z,2.33
2024-04-22T02:20:10.451Z,2.36
2024-04-22T02:22:37.258Z,2.27
2024-04-22T02:25:04.356Z,2.39
2024-04-22T02:27:31.056Z,2.28
2024-04-22T02:29:57.616Z,2.21
2024-04-22T02:32:24.641Z,2.22
2024-04-22T02:34:52.060Z,2.11
2024-04-22T02:37:19.071Z,2.27
2024-04-22T02:39:45.917Z,2.16
2024-04-22T02:42:13.022Z,1.96
2024-04-22T02:44:39.756Z,1.74
2024-04-22T02:47:06.714Z,1.90
2024-04-22T02:49:33.616Z,1.76
2024-04-22T02:52:00.457Z,1.80
2024-04-22T02:54:29.800Z,1.77
2024-04-22T02:56:56.700Z,1.75
2024-04-22T02:59:23.724Z,1.76
2024-04-22T03:01:51.555Z,1.74
2024-04-22T03:04:18.590Z,1.83
2024-04-22T03:06:45.296Z,1.67
2024-04-22T03:09:12.192Z,1.69
2024-04-22T03:11:39.101Z,1.56
2024-04-22T03:14:05.875Z,1.51
2024-04-22T03:16:32.854Z,1.54
2024-04-22T03:18:59.697Z,1.42
2024-04-22T03:21:26.332Z,1.43
2024-04-22T03:23:52.977Z,1.33
2024-04-22T03:26:19.913Z,1.32
2024-04-22T03:28:46.736Z,1.36
2024-04-22T03:31:13.507Z,1.16
2024-04-22T03:33:41.346Z,1.25
2024-04-22T03:36:08.552Z,1.31
2024-04-22T03:38:35.236Z,1.31
2024-04-22T03:41:02.205Z,1.22
2024-04-22T03:43:29.020Z,1.18
2024-04-22T03:46:14.382Z,1.21
2024-04-22T03:48:59.961Z,1.08
2024-04-22T03:51:26.713Z,1.02
2024-04-22T03:53:53.737Z,1.09
2024-04-22T03:56:20.337Z,1.10
2024-04-22T03:58:47.206Z,1.07
2024-04-22T04:01:14.066Z,0.99
2024-04-22T04:03:40.925Z,0.91
2024-04-22T04:06:09.273Z,0.92
2024-04-22T04:08:35.914Z,0.84
2024-04-22T04:11:11.248Z,0.95
2024-04-22T04:13:37.945Z,0.81
2024-04-22T04:16:05.193Z,0.80
2024-04-22T04:18:31.877Z,0.89
2024-04-22T04:20:58.642Z,0.92
2024-04-22T04:23:25.377Z,0.72
2024-04-22T04:25:52.191Z,0.83
2024-04-22T04:28:18.763Z,0.69
2024-04-22T04:31:01.067Z,0.82
2024-04-22T04:33:28.116Z,0.90
2024-04-22T04:36:06.270Z,0.77
2024-04-22T04:38:33.733Z,0.83
2024-04-22T04:41:01.322Z,0.82
2024-04-22T04:43:28.696Z,0.92
2024-04-22T04:45:55.408Z,0.86
2024-04-22T04:48:23.042Z,0.85
2024-04-22T04:50:50.369Z,0.76
2024-04-22T04:53:17.923Z,0.85
2024-04-22T04:55:48.176Z,0.84
2024-04-22T04:58:15.052Z,0.95
2024-04-22T05:00:42.604Z,0.87
2024-04-22T05:03:09.871Z,0.88
2024-04-22T05:05:36.749Z,0.96
2024-04-22T05:08:06.414Z,0.92
2024-04-22T05:10:35.296Z,0.99
2024-04-22T05:13:02.562Z,1.10
2024-04-22T05:15:29.905Z,1.21
2024-04-22T05:17:56.648Z,1.28
2024-04-22T05:20:23.349Z,1.33
2024-04-22T05:22:50.209Z,1.47
2024-04-22T05:25:17.461Z,1.48
2024-04-22T05:27:44.410Z,1.43
2024-04-22T05:30:11.487Z,1.48
2024-04-22T05:32:38.404Z,1.55
2024-04-22T05:35:23.846Z,1.58
2024-04-22T05:37:50.774Z,1.64
2024-04-22T05:40:17.916Z,1.71
2024-04-22T05:42:45.021Z,1.87
2024-04-22T05:45:11.640Z,1.91
2024-04-22T05:47:38.441Z,2.04
2024-04-22T05:50:05.443Z,1.98
2024-04-22T05:52:32.281Z,2.00
2024-04-22T05:55:00.356Z,2.00
2024-04-22T05:57:27.258Z,2.14
2024-04-22T05:59:54.203Z,2.09
2024-04-22T06:02:21.001Z,2.21
2024-04-22T06:04:47.823Z,2.22
2024-04-22T06:07:14.588Z,2.30
2024-04-22T06:09:41.462Z,2.36
2024-04-22T06:12:17.303Z,2.48
2024-04-22T06:14:46.619Z,2.60
2024-04-22T06:17:13.656Z,2.64
2024-04-22T06:19:40.671Z,2.71
2024-04-22T06:22:07.575Z,2.81
2024-04-22T06:24:34.374Z,2.86
2024-04-22T06:27:01.039Z,2.89
2024-04-22T06:29:27.731Z,3.00
2024-04-22T06:31:54.542Z,3.09
2024-04-22T06:34:21.404Z,3.24
2024-04-22T06:36:48.081Z,3.28
2024-04-22T06:39:15.089Z,3.46
2024-04-22T06:41:41.948Z,3.52
2024-04-22T06:44:09.068Z,3.56
2024-04-22T06:46:35.769Z,3.65
2024-04-22T06:49:02.524Z,3.66
2024-04-22T06:51:29.266Z,3.64
2024-04-22T06:53:56.040Z,3.70
2024-04-22T06:56:22.977Z,3.74
2024-04-22T06:58:49.756Z,3.88
2024-04-22T07:01:26.845Z,4.07
2024-04-22T07:03:59.589Z,4.23
2024-04-22T07:06:26.887Z,4.33
2024-04-22T07:08:53.625Z,4.50
2024-04-22T07:11:20.535Z,4.73
2024-04-22T07:13:47.380Z,4.79
2024-04-22T07:16:15.310Z,4.88
2024-04-22T07:18:42.322Z,5.04
2024-04-22T07:21:09.024Z,5.16
2024-04-22T07:23:35.716Z,5.31
2024-04-22T07:26:06.101Z,5.48
2024-04-22T07:28:33.242Z,5.58
2024-04-22T07:31:00.455Z,5.64
2024-04-22T07:33:31.370Z,5.81
2024-04-22T07:36:26.295Z,6.00
2024-04-22T07:38:53.919Z,6.17
2024-04-22T07:41:20.843Z,6.32
2024-04-22T07:43:47.545Z,6.39
2024-04-22T07:46:14.394Z,6.69
2024-04-22T07:48:41.091Z,6.75
2024-04-22T07:51:07.792Z,6.83
2024-04-22T07:53:34.714Z,6.97
2024-04-22T07:56:01.585Z,7.10
2024-04-22T07:58:28.661Z,7.28
2024-04-22T08:00:55.763Z,7.46
2024-04-22T08:03:22.927Z,7.43
2024-04-22T08:05:49.994Z,7.61
2024-04-22T08:08:20.177Z,7.77
2024-04-22T08:10:47.389Z,7.81
2024-04-22T08:13:14.244Z,7.94
2024-04-22T08:15:41.185Z,8.04
2024-04-22T08:18:08.088Z,8.12
2024-04-22T08:20:35.112Z,8.05
2024-04-22T08:23:01.854Z,8.33
2024-04-22T08:25:28.953Z,8.68
2024-04-22T08:27:55.945Z,8.80
2024-04-22T08:30:22.702Z,8.97
2024-04-22T08:32:49.619Z,8.98
2024-04-22T08:35:16.454Z,9.28
2024-04-22T08:37:43.238Z,9.34
2024-04-22T08:40:11.515Z,9.53
2024-04-22T08:42:40.758Z,9.37
2024-04-22T08:45:08.309Z,9.16
2024-04-22T08:47:35.375Z,9.27
2024-04-22T08:50:02.406Z,9.39
2024-04-22T08:52:36.738Z,9.44
2024-04-22T08:55:11.020Z,9.54
2024-04-22T08:57:37.705Z,9.89
2024-04-22T09:00:04.808Z,9.53
2024-04-22T09:02:32.750Z,9.28
2024-04-22T09:05:00.580Z,9.59
2024-04-22T09:07:28.960Z,9.51
2024-04-22T09:10:14.807Z,9.41
2024-04-22T09:12:42.754Z,9.05
2024-04-22T09:15:09.790Z,9.44
2024-04-22T09:17:40.031Z,10.04
2024-04-22T09:20:07.305Z,10.42
2024-04-22T09:22:34.283Z,10.33
2024-04-22T09:25:01.163Z,9.64
2024-04-22T09:27:29.189Z,10.14
2024-04-22T09:30:05.425Z,10.72
2024-04-22T09:32:36.217Z,11.07
2024-04-22T09:35:16.752Z,11.01
2024-04-22T09:37:49.162Z,11.38
2024-04-22T09:40:17.852Z,11.58
2024-04-22T09:42:47.138Z,11.41
2024-04-22T09:45:15.758Z,11.42
2024-04-22T09:47:43.638Z,11.72
2024-04-22T09:50:12.274Z,11.98
2024-04-22T09:52:40.305Z,12.33
2024-04-22T09:55:08.594Z,12.80
2024-04-22T09:57:42.797Z,12.94
2024-04-22T10:00:13.172Z,12.31
2024-04-22T10:02:40.585Z,12.70
2024-04-22T10:05:10.672Z,12.01
2024-04-22T10:07:38.298Z,12.11
2024-04-22T10:10:09.277Z,12.44
2024-04-22T10:12:36.901Z,12.83
2024-04-22T10:15:14.245Z,13.09
2024-04-22T10:17:43.721Z,13.03
2024-04-22T10:20:18.754Z,13.23
2024-04-22T10:22:45.740Z,13.28
2024-04-22T10:25:19.063Z,13.32
2024-04-22T10:27:46.025Z,12.90
2024-04-22T10:30:12.753Z,12.90
2024-04-22T10:32:39.511Z,12.42
2024-04-22T10:35:09.479Z,12.42
2024-04-22T10:37:36.467Z,12.27
2024-04-22T10:40:03.400Z,12.96
2024-04-22T10:42:30.165Z,12.90
2024-04-22T10:44:56.885Z,13.37
2024-04-22T10:47:23.791Z,13.77
2024-04-22T10:49:50.667Z,14.28
2024-04-22T10:52:17.508Z,14.26
2024-04-22T10:54:44.189Z,13.92
2024-04-22T10:57:12.450Z,13.95
2024-04-22T10:59:39.920Z,13.76
2024-04-22T11:02:09.660Z,13.38
2024-04-22T11:04:39.866Z,12.31
2024-04-22T11:07:06.679Z,12.08
2024-04-22T11:09:34.657Z,11.46
2024-04-22T11:12:02.191Z,11.86
2024-04-22T11:14:30.132Z,13.09
2024-04-22T11:16:57.988Z,12.99
2024-04-22T11:19:25.060Z,13.56
2024-04-22T11:21:51.932Z,13.58
2024-04-22T11:24:18.930Z,13.66
2024-04-22T11:26:45.693Z,13.87
2024-04-22T11:29:12.759Z,14.24
2024-04-22T11:31:40.709Z,14.79
2024-04-22T11:34:07.758Z,14.90
2024-04-22T11:36:37.860Z,14.14
2024-04-22T11:39:15.469Z,13.07
2024-04-22T11:41:42.459Z,12.63
2024-04-22T11:44:09.084Z,12.07
2024-04-22T11:46:36.017Z,11.76
2024-04-22T11:49:02.815Z,12.06
2024-04-22T11:51:30.608Z,11.14
2024-04-22T11:53:57.272Z,11.20
2024-04-22T11:56:27.386Z,11.01
2024-04-22T11:58:54.098Z,10.93
2024-04-22T12:01:20.919Z,10.55
2024-04-22T12:03:48.267Z,10.45
2024-04-22T12:06:17.702Z,10.37
2024-04-22T12:08:44.331Z,10.34
2024-04-22T12:11:11.474Z,10.37
2024-04-22T12:13:38.285Z,10.29
2024-04-22T12:16:05.667Z,10.69
2024-04-22T12:18:32.619Z,10.14
2024-04-22T12:21:01.955Z,10.71
2024-04-22T12:23:30.003Z,11.16
2024-04-22T12:25:57.466Z,10.92
2024-04-22T12:28:24.333Z,10.33
2024-04-22T12:30:55.400Z,10.64
2024-04-22T12:33:22.326Z,10.45
2024-04-22T12:35:49.007Z,10.12
2024-04-22T12:38:15.849Z,9.71
2024-04-22T12:40:42.566Z,10.19
2024-04-22T12:43:10.353Z,9.87
2024-04-22T12:45:37.402Z,9.50
2024-04-22T12:48:22.845Z,9.09
2024-04-22T12:50:51.160Z,9.76
2024-04-22T12:53:18.384Z,9.57
2024-04-22T12:55:45.568Z,9.82
2024-04-22T12:58:14.124Z,9.04
2024-04-22T13:00:41.622Z,8.76
2024-04-22T13:03:08.504Z,9.13
2024-04-22T13:05:36.044Z,9.63
2024-04-22T13:08:03.062Z,9.92
2024-04-22T13:10:29.879Z,9.56
2024-04-22T13:12:56.831Z,10.00
2024-04-22T13:15:24.029Z,10.07
2024-04-22T13:17:52.551Z,9.98
2024-04-22T13:20:19.442Z,10.34
2024-04-22T13:22:46.358Z,10.35
2024-04-22T13:25:13.090Z,10.37
2024-04-22T13:27:39.849Z,10.45
2024-04-22T13:30:10.398Z,10.70
2024-04-22T13:32:42.243Z,10.69
2024-04-22T13:35:09.855Z,11.24
2024-04-22T13:37:37.356Z,11.80
2024-04-22T13:40:04.342Z,12.54
2024-04-22T13:42:33.562Z,12.58
2024-04-22T13:45:05.761Z,13.00
2024-04-22T13:47:32.580Z,13.67
2024-04-22T13:49:59.481Z,13.44
2024-04-22T13:52:26.565Z,13.76
2024-04-22T13:54:53.272Z,14.31
2024-04-22T13:57:19.919Z,14.60
2024-04-22T13:59:46.664Z,14.19
2024-04-22T14:02:13.505Z,14.92
2024-04-22T14:04:40.362Z,14.54
2024-04-22T14:07:07.090Z,14.78
2024-04-22T14:09:33.830Z,15.37
2024-04-22T14:12:00.638Z,14.24
2024-04-22T14:14:29.933Z,13.82
2024-04-22T14:16:57.047Z,13.78
2024-04-22T14:19:24.070Z,13.15
2024-04-22T14:21:51.883Z,13.78
2024-04-22T14:24:18.908Z,12.54
2024-04-22T14:26:45.611Z,11.87
2024-04-22T14:29:12.343Z,11.33
2024-04-22T14:31:39.132Z,11.29
2024-04-22T14:34:06.334Z,10.72
2024-04-22T14:36:33.306Z,10.58
2024-04-22T14:39:00.029Z,10.98
2024-04-22T14:41:26.776Z,10.65
2024-04-22T14:43:53.779Z,10.71
2024-04-22T14:46:21.723Z,10.99
2024-04-22T14:48:48.869Z,11.10
2024-04-22T14:51:15.763Z,11.09
2024-04-22T14:53:42.513Z,10.75
2024-04-22T14:56:09.337Z,10.82
2024-04-22T14:58:36.063Z,10.66
2024-04-22T15:01:03.030Z,10.33
2024-04-22T15:03:30.199Z,10.87
2024-04-22T15:05:57.206Z,10.69
2024-04-22T15:08:24.033Z,10.80
2024-04-22T15:10:52.732Z,10.71
2024-04-22T15:13:20.151Z,9.61
2024-04-22T15:15:47.069Z,9.30
2024-04-22T15:18:14.106Z,9.49
2024-04-22T15:20:40.870Z,9.28
2024-04-22T15:23:07.553Z,10.33
2024-04-22T15:25:34.329Z,10.53
2024-04-22T15:28:00.999Z,11.49
2024-04-22T15:30:27.735Z,12.72
2024-04-22T15:32:55.194Z,13.38
2024-04-22T15:35:22.304Z,14.02
2024-04-22T15:37:52.030Z,14.26
2024-04-22T15:40:19.074Z,13.90
2024-04-22T15:42:46.048Z,14.90
2024-04-22T15:45:13.028Z,15.64
2024-04-22T15:47:39.957Z,16.23
2024-04-22T15:50:07.254Z,13.99
2024-04-22T15:52:34.427Z,15.55
2024-04-22T15:55:01.509Z,16.04
2024-04-22T15:57:28.297Z,15.39
2024-04-22T16:00:02.419Z,16.17
2024-04-22T16:02:36.661Z,17.07
2024-04-22T16:05:03.795Z,16.24
2024-04-22T16:07:30.916Z,15.69
2024-04-22T16:09:57.729Z,15.38
2024-04-22T16:12:25.067Z,15.12
2024-04-22T16:14:51.824Z,14.90
2024-04-22T16:17:18.796Z,15.20
2024-04-22T16:19:45.560Z,15.38
2024-04-22T16:22:12.319Z,14.78
2024-04-22T16:24:39.109Z,13.84
2024-04-22T16:27:06.073Z,13.59
2024-04-22T16:29:32.930Z,12.79
2024-04-22T16:31:59.903Z,11.98
2024-04-22T16:34:26.633Z,12.39
2024-04-22T16:36:53.473Z,12.12
2024-04-22T16:39:21.294Z,11.87
2024-04-22T16:41:48.378Z,11.59
2024-04-22T16:44:15.094Z,11.65
2024-04-22T16:46:41.849Z,11.37
2024-04-22T16:49:08.521Z,10.88
2024-04-22T16:51:35.189Z,10.83
2024-04-22T16:54:01.998Z,10.61
2024-04-22T16:56:28.722Z,10.37
2024-04-22T16:58:55.508Z,10.12
2024-04-22T17:01:24.557Z,10.24
2024-04-22T17:03:51.357Z,10.17
2024-04-22T17:06:18.549Z,10.91
2024-04-22T17:08:45.231Z,11.46
2024-04-22T17:11:12.074Z,11.56
2024-04-22T17:13:40.050Z,12.01
2024-04-22T17:16:07.205Z,11.41
2024-04-22T17:18:34.056Z,11.49
2024-04-22T17:21:00.905Z,10.91
2024-04-22T17:23:29.011Z,10.52
2024-04-22T17:25:55.734Z,10.68
2024-04-22T17:28:22.831Z,10.71
2024-04-22T17:30:55.925Z,10.39
2024-04-22T17:33:22.700Z,10.18
2024-04-22T17:35:50.839Z,9.94
2024-04-22T17:38:19.237Z,9.79
2024-04-22T17:40:54.273Z,9.45
2024-04-22T17:43:21.731Z,9.69
2024-04-22T17:46:06.060Z,9.68
2024-04-22T17:48:34.006Z,9.53
2024-04-22T17:51:01.545Z,9.43
2024-04-22T17:53:29.414Z,9.19
2024-04-22T17:55:56.942Z,9.02
2024-04-22T17:58:23.875Z,8.57
2024-04-22T18:00:54.243Z,8.57
2024-04-22T18:03:21.238Z,8.08
2024-04-22T18:05:48.220Z,8.36
2024-04-22T18:08:15.066Z,8.50
2024-04-22T18:10:47.258Z,8.49
2024-04-22T18:13:14.901Z,8.18
2024-04-22T18:15:41.832Z,7.74
2024-04-22T18:18:09.717Z,7.44
2024-04-22T18:20:37.277Z,7.42
2024-04-22T18:23:04.597Z,7.54
2024-04-22T18:25:38.012Z,7.61
2024-04-22T18:28:07.046Z,7.51
2024-04-22T18:30:34.223Z,7.73
2024-04-22T18:33:02.006Z,7.25
2024-04-22T18:35:29.527Z,7.07
2024-04-22T18:37:56.418Z,7.23
2024-04-22T18:40:23.381Z,7.10
2024-04-22T18:42:50.094Z,6.96
2024-04-22T18:45:17.019Z,6.89
2024-04-22T18:47:43.865Z,6.82
2024-04-22T18:50:10.676Z,6.83
2024-04-22T18:52:37.383Z,6.71
2024-04-22T18:55:04.250Z,6.77
2024-04-22T18:57:31.067Z,6.55
2024-04-22T18:59:57.693Z,6.63
2024-04-22T19:02:24.432Z,6.74
2024-04-22T19:04:51.104Z,6.60
2024-04-22T19:07:18.001Z,6.73
2024-04-22T19:09:44.762Z,6.53
2024-04-22T19:12:11.532Z,6.48
2024-04-22T19:14:38.241Z,6.45
2024-04-22T19:17:05.642Z,6.21
2024-04-22T19:19:32.440Z,6.46
2024-04-22T19:21:59.148Z,6.37
2024-04-22T19:24:25.744Z,6.26
2024-04-22T19:26:52.609Z,6.31
2024-04-22T19:29:21.626Z,6.38
2024-04-22T19:31:48.470Z,6.47
2024-04-22T19:34:15.396Z,6.43
2024-04-22T19:36:42.018Z,6.41
2024-04-22T19:39:08.866Z,6.24
2024-04-22T19:41:35.591Z,6.09
2024-04-22T19:44:02.443Z,5.94
2024-04-22T19:46:29.352Z,5.64
2024-04-22T19:48:56.119Z,5.35
2024-04-22T19:51:22.904Z,5.36
2024-04-22T19:53:51.093Z,5.49
2024-04-22T19:56:18.215Z,5.03
2024-04-22T19:58:45.147Z,5.24
2024-04-22T20:01:12.156Z,5.17
2024-04-22T20:03:39.953Z,5.16
2024-04-22T20:06:06.999Z,5.09
2024-04-22T20:08:33.951Z,5.03
2024-04-22T20:11:04.978Z,4.59
2024-04-22T20:13:31.855Z,4.55
2024-04-22T20:16:15.293Z,4.75
2024-04-22T20:18:54.041Z,4.69
2024-04-22T20:21:21.688Z,4.78
2024-04-22T20:23:48.654Z,4.68
2024-04-22T20:26:15.360Z,4.58
2024-04-22T20:28:42.179Z,4.64
2024-04-22T20:31:09.347Z,4.72
2024-04-22T20:33:36.214Z,4.73
2024-04-22T20:36:04.477Z,4.85
2024-04-22T20:38:31.293Z,4.74
2024-04-22T20:41:00.293Z,4.88
2024-04-22T20:43:27.957Z,4.88
2024-04-22T20:45:58.138Z,4.86
2024-04-22T20:48:25.118Z,4.87
2024-04-22T20:51:00.411Z,4.87
2024-04-22T20:53:28.593Z,4.60
2024-04-22T20:55:56.596Z,4.74
2024-04-22T20:58:23.458Z,4.81
2024-04-22T21:00:57.010Z,4.80
2024-04-22T21:03:24.736Z,4.61
2024-04-22T21:05:51.859Z,4.62
2024-04-22T21:08:19.999Z,4.59
2024-04-22T21:10:47.261Z,4.54
2024-04-22T21:13:14.335Z,4.12
2024-04-22T21:15:41.888Z,4.04
2024-04-22T21:18:08.586Z,4.03
2024-04-22T21:20:35.670Z,3.98
2024-04-22T21:23:02.603Z,3.68
2024-04-22T21:25:29.299Z,3.86
2024-04-22T21:27:56.021Z,3.64
2024-04-22T21:30:24.922Z,3.68
2024-04-22T21:33:05.669Z,4.02
2024-04-22T21:35:39.968Z,3.77
2024-04-22T21:38:07.179Z,3.76
2024-04-22T21:40:33.796Z,3.69
2024-04-22T21:43:00.553Z,3.78
2024-04-22T21:45:27.606Z,3.86
2024-04-22T21:47:54.370Z,3.85
2024-04-22T21:50:21.198Z,3.73
2024-04-22T21:52:48.045Z,3.67
2024-04-22T21:55:19.537Z,3.52
2024-04-22T21:58:24.244Z,3.72
2024-04-22T22:01:29.365Z,3.32
2024-04-22T22:04:33.848Z,3.48
2024-04-22T22:07:16.700Z,3.49
2024-04-22T22:09:44.757Z,3.58
2024-04-22T22:12:11.758Z,3.42
2024-04-22T22:14:38.439Z,3.38
2024-04-22T22:17:05.405Z,3.47
2024-04-22T22:19:32.711Z,3.24
2024-04-22T22:21:59.393Z,3.41
2024-04-22T22:24:26.193Z,3.42
2024-04-22T22:26:53.898Z,3.25
2024-04-22T22:29:20.657Z,3.50
2024-04-22T22:31:47.544Z,3.56
2024-04-22T22:34:14.294Z,3.55
2024-04-22T22:36:40.962Z,3.59
2024-04-22T22:39:07.717Z,3.60
2024-04-22T22:41:34.523Z,3.63
2024-04-22T22:44:01.378Z,3.49
2024-04-22T22:46:28.029Z,3.00
2024-04-22T22:48:54.887Z,2.88
2024-04-22T22:51:21.538Z,2.60
2024-04-22T22:53:48.309Z,2.53
2024-04-22T22:56:14.942Z,2.78
2024-04-22T22:58:41.671Z,2.46
2024-04-22T23:01:08.279Z,2.74
2024-04-22T23:03:34.998Z,2.95
2024-04-22T23:06:01.642Z,2.69
2024-04-22T23:08:28.506Z,2.45
2024-04-22T23:10:55.451Z,2.30
2024-04-22T23:13:22.362Z,2.42
2024-04-22T23:15:49.240Z,2.33
2024-04-22T23:18:15.929Z,2.19
2024-04-22T23:20:42.628Z,2.13
2024-04-22T23:23:09.373Z,2.39
2024-04-22T23:25:35.975Z,2.37
2024-04-22T23:28:02.876Z,2.14
2024-04-22T23:30:29.516Z,2.12
2024-04-22T23:32:56.448Z,2.24
2024-04-22T23:35:23.226Z,2.23
2024-04-22T23:37:50.044Z,2.19
2024-04-22T23:40:16.749Z,2.22
2024-04-22T23:42:43.923Z,2.13
2024-04-22T23:45:10.600Z,2.17
2024-04-22T23:47:37.321Z,2.24
2024-04-22T23:50:04.252Z,2.17
2024-04-22T23:52:30.961Z,2.22
2024-04-22T23:54:57.837Z,2.18
2024-04-22T23:57:24.415Z,2.22
2024-04-22T23:59:51.080Z,2.18
